AUA5PC LOWW-EPWA
Flight info
| Callsign | AUA5PC |
|---|---|
| Flight time | N/A |
| Altitude | 35000 |
| Route | LEDVA DCT NETIR DCT LIGDI DCT KURON T709 KOTEK M866 LOGDA |
| Aircraft | A320/M-SDE3FGHIRWY/LB1 |
Departure
| Time | 2026-05-06 16:23 |
|---|---|
| Airport | Vienna International Airport (LOWW) |
Arrival
| Time | N/A |
|---|---|
| Airport | Warsaw Chopin Airport (EPWA) |
| Time | Latitude | Longitude | Altitude | Speed | Heading |
|---|---|---|---|---|---|
| 2026-05-06 16:08 | 48.11611 | 16.56569 | 610 ft | 0 kts | 206° |
| 2026-05-06 16:14 | 48.11612 | 16.56569 | 610 ft | 0 kts | 206° |
| 2026-05-06 16:18 | 48.11587 | 16.56551 | 610 ft | 6 kts | 206° |
| 2026-05-06 16:18 | 48.11545 | 16.56537 | 618 ft | 6 kts | 155° |
| 2026-05-06 16:18 | 48.11519 | 16.56603 | 610 ft | 8 kts | 117° |
| 2026-05-06 16:18 | 48.11489 | 16.56698 | 610 ft | 15 kts | 115° |
| 2026-05-06 16:19 | 48.11432 | 16.56871 | 610 ft | 20 kts | 116° |
| 2026-05-06 16:19 | 48.11373 | 16.57056 | 618 ft | 20 kts | 116° |
| 2026-05-06 16:19 | 48.11312 | 16.57239 | 620 ft | 14 kts | 116° |
| 2026-05-06 16:19 | 48.11330 | 16.57346 | 610 ft | 11 kts | 25° |
| 2026-05-06 16:20 | 48.11398 | 16.57394 | 621 ft | 10 kts | 26° |
| 2026-05-06 16:20 | 48.11484 | 16.57456 | 610 ft | 15 kts | 27° |
| 2026-05-06 16:20 | 48.11572 | 16.57530 | 611 ft | 14 kts | 30° |
| 2026-05-06 16:20 | 48.11654 | 16.57537 | 618 ft | 11 kts | 343° |
| 2026-05-06 16:21 | 48.11743 | 16.57499 | 616 ft | 17 kts | 345° |
| 2026-05-06 16:21 | 48.11830 | 16.57525 | 623 ft | 12 kts | 65° |
| 2026-05-06 16:21 | 48.11852 | 16.57637 | 617 ft | 10 kts | 74° |
| 2026-05-06 16:21 | 48.11858 | 16.57753 | 613 ft | 14 kts | 98° |
| 2026-05-06 16:22 | 48.11795 | 16.57886 | 610 ft | 16 kts | 146° |
| 2026-05-06 16:22 | 48.11685 | 16.57941 | 616 ft | 22 kts | 165° |
| 2026-05-06 16:22 | 48.11309 | 16.58100 | 619 ft | 88 kts | 165° |
| 2026-05-06 16:22 | 48.10540 | 16.58426 | 616 ft | 139 kts | 163° |
| 2026-05-06 16:23 | 48.09546 | 16.58861 | 995 ft | 150 kts | 166° |
| 2026-05-06 16:23 | 48.08522 | 16.59306 | 1544 ft | 155 kts | 168° |
| 2026-05-06 16:23 | 48.07452 | 16.59758 | 1984 ft | 170 kts | 169° |
| 2026-05-06 16:23 | 48.06259 | 16.60379 | 2288 ft | 193 kts | 156° |
| 2026-05-06 16:24 | 48.05207 | 16.61737 | 2868 ft | 208 kts | 132° |
| 2026-05-06 16:24 | 48.04597 | 16.63752 | 3585 ft | 222 kts | 107° |
| 2026-05-06 16:24 | 48.04651 | 16.66086 | 4267 ft | 238 kts | 78° |
| 2026-05-06 16:24 | 48.05500 | 16.68268 | 4913 ft | 252 kts | 46° |
| 2026-05-06 16:25 | 48.06883 | 16.70010 | 5339 ft | 271 kts | 38° |
| 2026-05-06 16:25 | 48.08459 | 16.71776 | 5706 ft | 295 kts | 37° |
| 2026-05-06 16:25 | 48.10158 | 16.73614 | 6344 ft | 305 kts | 36° |
| 2026-05-06 16:25 | 48.11887 | 16.75474 | 7141 ft | 307 kts | 36° |
| 2026-05-06 16:26 | 48.13676 | 16.77249 | 7923 ft | 310 kts | 26° |
| 2026-05-06 16:26 | 48.15001 | 16.78063 | 8434 ft | 312 kts | 14° |
| 2026-05-06 16:26 | 48.17838 | 16.78553 | 9479 ft | 310 kts | 351° |
| 2026-05-06 16:26 | 48.19958 | 16.78050 | 10218 ft | 310 kts | 345° |
| 2026-05-06 16:27 | 48.21407 | 16.77659 | 10555 ft | 320 kts | 346° |
| 2026-05-06 16:27 | 48.23675 | 16.77048 | 10767 ft | 343 kts | 346° |
| 2026-05-06 16:27 | 48.26090 | 16.76406 | 11151 ft | 357 kts | 346° |
| 2026-05-06 16:27 | 48.28558 | 16.75759 | 11803 ft | 363 kts | 347° |
| 2026-05-06 16:28 | 48.31069 | 16.75103 | 12482 ft | 368 kts | 347° |
| 2026-05-06 16:28 | 48.33625 | 16.74632 | 13152 ft | 375 kts | 356° |
| 2026-05-06 16:28 | 48.36219 | 16.74858 | 13765 ft | 381 kts | 7° |
| 2026-05-06 16:28 | 48.38845 | 16.75631 | 14368 ft | 385 kts | 9° |
| 2026-05-06 16:29 | 48.41488 | 16.76430 | 14960 ft | 389 kts | 9° |
| 2026-05-06 16:29 | 48.44150 | 16.77226 | 15562 ft | 392 kts | 9° |
| 2026-05-06 16:29 | 48.46835 | 16.78026 | 16174 ft | 394 kts | 9° |
| 2026-05-06 16:29 | 48.49539 | 16.78823 | 16772 ft | 397 kts | 7° |
| 2026-05-06 16:30 | 48.52294 | 16.79194 | 17353 ft | 397 kts | 356° |
| 2026-05-06 16:30 | 48.54132 | 16.79167 | 17741 ft | 399 kts | 356° |
| 2026-05-06 16:30 | 48.57865 | 16.79105 | 18467 ft | 403 kts | 356° |
| 2026-05-06 16:30 | 48.60684 | 16.79060 | 18989 ft | 406 kts | 356° |
| 2026-05-06 16:31 | 48.63517 | 16.79020 | 19515 ft | 409 kts | 356° |
| 2026-05-06 16:31 | 48.66369 | 16.79005 | 20037 ft | 412 kts | 359° |
| 2026-05-06 16:31 | 48.69235 | 16.79599 | 20538 ft | 420 kts | 11° |
| 2026-05-06 16:31 | 48.72011 | 16.81083 | 21032 ft | 427 kts | 24° |
| 2026-05-06 16:32 | 48.74574 | 16.83396 | 21545 ft | 432 kts | 36° |
| 2026-05-06 16:32 | 48.76794 | 16.86473 | 22020 ft | 436 kts | 49° |
| 2026-05-06 16:32 | 48.78695 | 16.90070 | 22505 ft | 439 kts | 52° |
| 2026-05-06 16:32 | 48.80585 | 16.93725 | 22976 ft | 442 kts | 52° |
| 2026-05-06 16:33 | 48.82494 | 16.97415 | 23421 ft | 445 kts | 52° |
| 2026-05-06 16:33 | 48.84410 | 17.01114 | 23800 ft | 447 kts | 52° |
| 2026-05-06 16:33 | 48.86342 | 17.04844 | 24178 ft | 450 kts | 52° |
| 2026-05-06 16:34 | 48.90204 | 17.12328 | 24904 ft | 455 kts | 52° |
| 2026-05-06 16:34 | 48.92158 | 17.16130 | 25249 ft | 457 kts | 52° |
| 2026-05-06 16:34 | 48.94128 | 17.19962 | 25598 ft | 460 kts | 52° |
| 2026-05-06 16:34 | 48.96105 | 17.23817 | 25926 ft | 463 kts | 52° |
| 2026-05-06 16:35 | 48.98091 | 17.27693 | 26258 ft | 465 kts | 52° |
| 2026-05-06 16:35 | 49.00082 | 17.31588 | 26597 ft | 467 kts | 52° |
| 2026-05-06 16:35 | 49.02083 | 17.35505 | 26924 ft | 470 kts | 52° |
| 2026-05-06 16:35 | 49.04098 | 17.39452 | 27240 ft | 472 kts | 52° |
| 2026-05-06 16:36 | 49.06116 | 17.43419 | 27552 ft | 474 kts | 52° |
| 2026-05-06 16:36 | 49.08143 | 17.47416 | 27863 ft | 477 kts | 52° |
| 2026-05-06 16:36 | 49.10153 | 17.51372 | 28170 ft | 479 kts | 52° |
| 2026-05-06 16:36 | 49.12203 | 17.55406 | 28465 ft | 481 kts | 52° |
| 2026-05-06 16:37 | 49.14258 | 17.59454 | 28754 ft | 483 kts | 52° |
| 2026-05-06 16:37 | 49.16321 | 17.63531 | 29039 ft | 486 kts | 52° |
| 2026-05-06 16:37 | 49.18386 | 17.67620 | 29317 ft | 487 kts | 52° |
| 2026-05-06 16:37 | 49.20459 | 17.71733 | 29586 ft | 489 kts | 52° |
| 2026-05-06 16:38 | 49.22536 | 17.75871 | 29831 ft | 491 kts | 52° |
| 2026-05-06 16:38 | 49.24618 | 17.80026 | 30041 ft | 493 kts | 52° |
| 2026-05-06 16:38 | 49.26718 | 17.84212 | 30253 ft | 495 kts | 52° |
| 2026-05-06 16:38 | 49.28822 | 17.88410 | 30457 ft | 497 kts | 52° |
| 2026-05-06 16:39 | 49.30928 | 17.92624 | 30688 ft | 498 kts | 52° |
| 2026-05-06 16:39 | 49.33031 | 17.96839 | 30980 ft | 498 kts | 52° |
| 2026-05-06 16:39 | 49.35134 | 18.01054 | 31231 ft | 498 kts | 52° |
| 2026-05-06 16:39 | 49.37240 | 18.05282 | 31461 ft | 499 kts | 52° |
| 2026-05-06 16:40 | 49.39346 | 18.09518 | 31695 ft | 499 kts | 52° |
| 2026-05-06 16:40 | 49.41452 | 18.13757 | 31944 ft | 499 kts | 51° |
| 2026-05-06 16:40 | 49.43553 | 18.17998 | 32265 ft | 497 kts | 51° |
| 2026-05-06 16:40 | 49.45617 | 18.22171 | 32545 ft | 497 kts | 51° |
| 2026-05-06 16:41 | 49.47712 | 18.26416 | 32828 ft | 497 kts | 51° |
| 2026-05-06 16:41 | 49.49799 | 18.30658 | 33101 ft | 497 kts | 51° |
| 2026-05-06 16:41 | 49.51887 | 18.34902 | 33351 ft | 497 kts | 51° |
| 2026-05-06 16:41 | 49.53977 | 18.39150 | 33604 ft | 498 kts | 51° |
| 2026-05-06 16:42 | 49.56065 | 18.43399 | 33870 ft | 498 kts | 51° |
| 2026-05-06 16:42 | 49.58156 | 18.47661 | 34108 ft | 498 kts | 51° |
| 2026-05-06 16:42 | 49.60239 | 18.51915 | 34364 ft | 497 kts | 51° |
| 2026-05-06 16:42 | 49.62317 | 18.56171 | 34594 ft | 496 kts | 51° |
| 2026-05-06 16:43 | 49.64390 | 18.60429 | 34770 ft | 497 kts | 51° |
| 2026-05-06 16:43 | 49.68524 | 18.68909 | 34813 ft | 491 kts | 48° |
| 2026-05-06 16:44 | 49.73360 | 18.76224 | 34822 ft | 486 kts | 38° |
| 2026-05-06 16:44 | 49.78387 | 18.83105 | 34822 ft | 486 kts | 38° |
| 2026-05-06 16:45 | 49.83442 | 18.90082 | 34805 ft | 485 kts | 38° |
| 2026-05-06 16:45 | 49.88463 | 18.97033 | 34812 ft | 483 kts | 39° |
| 2026-05-06 16:46 | 49.93470 | 19.03991 | 34809 ft | 483 kts | 39° |
| 2026-05-06 16:46 | 49.98483 | 19.10957 | 34830 ft | 483 kts | 39° |
| 2026-05-06 16:47 | 50.03489 | 19.17932 | 34828 ft | 483 kts | 39° |
| 2026-05-06 16:47 | 50.08485 | 19.24924 | 34823 ft | 483 kts | 39° |
| 2026-05-06 16:48 | 50.13449 | 19.31883 | 34821 ft | 483 kts | 39° |
| 2026-05-06 16:48 | 50.18452 | 19.38893 | 34837 ft | 483 kts | 39° |
| 2026-05-06 16:49 | 50.23443 | 19.45913 | 34822 ft | 482 kts | 40° |
| 2026-05-06 16:49 | 50.28407 | 19.52975 | 34822 ft | 482 kts | 40° |
| 2026-05-06 16:50 | 50.33008 | 19.60551 | 34817 ft | 484 kts | 47° |
| 2026-05-06 16:50 | 50.37464 | 19.68496 | 34825 ft | 485 kts | 47° |
| 2026-05-06 16:51 | 50.41911 | 19.76450 | 34821 ft | 485 kts | 47° |
| 2026-05-06 16:51 | 50.46358 | 19.84432 | 34806 ft | 484 kts | 47° |
| 2026-05-06 16:52 | 50.50780 | 19.92392 | 34829 ft | 483 kts | 47° |
| 2026-05-06 16:52 | 50.55173 | 20.00324 | 34580 ft | 485 kts | 47° |
| 2026-05-06 16:52 | 50.57400 | 20.04357 | 33609 ft | 491 kts | 47° |
| 2026-05-06 16:53 | 50.59650 | 20.08435 | 32598 ft | 495 kts | 47° |
| 2026-05-06 16:53 | 50.61793 | 20.12673 | 31855 ft | 494 kts | 56° |
| 2026-05-06 16:53 | 50.63504 | 20.17341 | 31230 ft | 490 kts | 63° |
| 2026-05-06 16:53 | 50.65297 | 20.21888 | 30630 ft | 485 kts | 50° |
| 2026-05-06 16:54 | 50.67626 | 20.25687 | 30053 ft | 479 kts | 38° |
| 2026-05-06 16:54 | 50.70307 | 20.28661 | 29445 ft | 476 kts | 27° |
| 2026-05-06 16:54 | 50.73255 | 20.30917 | 28875 ft | 467 kts | 20° |